sensor_id;sensor_type;location;lat;lon;timestamp;pressure;altitude;pressure_sealevel;temperature;humidity
43824;BME280;29470;53.550;9.926;2022-08-24T00:02:28;101529.09;;;21.17;60.93
43824;BME280;29470;53.550;9.926;2022-08-24T00:07:31;101529.66;;;21.09;61.52
43824;BME280;29470;53.550;9.926;2022-08-24T00:12:36;101527.53;;;21.00;61.56
43824;BME280;29470;53.550;9.926;2022-08-24T00:17:39;101527.25;;;20.92;62.10
43824;BME280;29470;53.550;9.926;2022-08-24T00:22:42;101526.81;;;20.81;62.37
43824;BME280;29470;53.550;9.926;2022-08-24T00:27:46;101526.91;;;20.83;62.76
43824;BME280;29470;53.550;9.926;2022-08-24T00:32:50;101528.50;;;20.79;62.57
43824;BME280;29470;53.550;9.926;2022-08-24T00:37:54;101523.75;;;20.70;62.28
43824;BME280;29470;53.550;9.926;2022-08-24T00:43:00;101526.16;;;20.66;62.85
43824;BME280;29470;53.550;9.926;2022-08-24T00:48:07;101523.38;;;20.61;62.46
43824;BME280;29470;53.550;9.926;2022-08-24T00:53:19;101527.16;;;20.46;63.17
43824;BME280;29470;53.550;9.926;2022-08-24T00:58:28;101534.25;;;20.49;63.44
43824;BME280;29470;53.550;9.926;2022-08-24T01:03:33;101527.09;;;20.45;63.99
43824;BME280;29470;53.550;9.926;2022-08-24T01:08:37;101531.53;;;20.25;64.76
43824;BME280;29470;53.550;9.926;2022-08-24T01:13:44;101532.69;;;20.31;64.32
43824;BME280;29470;53.550;9.926;2022-08-24T01:18:48;101534.72;;;20.17;64.94
43824;BME280;29470;53.550;9.926;2022-08-24T01:23:55;101537.22;;;20.14;65.28
43824;BME280;29470;53.550;9.926;2022-08-24T01:29:01;101541.31;;;20.08;65.92
43824;BME280;29470;53.550;9.926;2022-08-24T01:34:06;101544.56;;;20.02;66.27
43824;BME280;29470;53.550;9.926;2022-08-24T01:39:13;101533.09;;;20.00;66.50
43824;BME280;29470;53.550;9.926;2022-08-24T01:44:17;101532.97;;;19.97;66.77
43824;BME280;29470;53.550;9.926;2022-08-24T01:49:23;101535.44;;;19.94;67.25
43824;BME280;29470;53.550;9.926;2022-08-24T01:54:28;101526.44;;;19.88;67.00
43824;BME280;29470;53.550;9.926;2022-08-24T01:59:36;101529.59;;;19.80;67.83
43824;BME280;29470;53.550;9.926;2022-08-24T02:04:40;101538.34;;;19.80;67.46
43824;BME280;29470;53.550;9.926;2022-08-24T02:09:47;101544.09;;;19.71;68.04
43824;BME280;29470;53.550;9.926;2022-08-24T02:14:50;101547.72;;;19.75;68.48
43824;BME280;29470;53.550;9.926;2022-08-24T02:19:53;101552.66;;;19.67;68.95
43824;BME280;29470;53.550;9.926;2022-08-24T02:24:58;101548.38;;;19.69;69.21
43824;BME280;29470;53.550;9.926;2022-08-24T02:30:03;101556.16;;;19.68;69.55
43824;BME280;29470;53.550;9.926;2022-08-24T02:35:08;101556.66;;;19.59;70.22
43824;BME280;29470;53.550;9.926;2022-08-24T02:40:13;101565.22;;;19.55;70.74
43824;BME280;29470;53.550;9.926;2022-08-24T02:45:16;101553.88;;;19.56;70.59
43824;BME280;29470;53.550;9.926;2022-08-24T02:50:20;101563.88;;;19.45;70.64
43824;BME280;29470;53.550;9.926;2022-08-24T02:55:25;101559.47;;;19.44;70.80
43824;BME280;29470;53.550;9.926;2022-08-24T03:00:28;101553.72;;;19.33;71.09
43824;BME280;29470;53.550;9.926;2022-08-24T03:05:31;101554.38;;;19.27;71.61
43824;BME280;29470;53.550;9.926;2022-08-24T03:10:36;101546.25;;;19.23;71.83
43824;BME280;29470;53.550;9.926;2022-08-24T03:15:39;101559.47;;;19.24;72.04
43824;BME280;29470;53.550;9.926;2022-08-24T03:20:42;101557.22;;;19.14;72.50
43824;BME280;29470;53.550;9.926;2022-08-24T03:25:46;101555.63;;;19.18;72.34
43824;BME280;29470;53.550;9.926;2022-08-24T03:30:50;101555.72;;;19.19;72.93
43824;BME280;29470;53.550;9.926;2022-08-24T03:35:55;101557.38;;;19.17;73.31
43824;BME280;29470;53.550;9.926;2022-08-24T03:40:59;101555.59;;;19.16;73.33
43824;BME280;29470;53.550;9.926;2022-08-24T03:46:04;101557.97;;;19.11;74.00
43824;BME280;29470;53.550;9.926;2022-08-24T03:51:10;101556.59;;;19.20;73.88
43824;BME280;29470;53.550;9.926;2022-08-24T03:56:15;101553.78;;;19.15;74.41
43824;BME280;29470;53.550;9.926;2022-08-24T04:01:20;101554.53;;;19.12;74.88
43824;BME280;29470;53.550;9.926;2022-08-24T04:06:23;101561.56;;;19.13;75.75
43824;BME280;29470;53.550;9.926;2022-08-24T04:11:29;101568.84;;;19.19;76.54
43824;BME280;29470;53.550;9.926;2022-08-24T04:16:33;101567.88;;;19.17;76.65
43824;BME280;29470;53.550;9.926;2022-08-24T04:21:47;101566.22;;;19.19;76.88
43824;BME280;29470;53.550;9.926;2022-08-24T04:26:54;101563.66;;;19.21;77.35
43824;BME280;29470;53.550;9.926;2022-08-24T04:31:58;101564.28;;;19.15;77.96
43824;BME280;29470;53.550;9.926;2022-08-24T04:37:02;101560.53;;;19.10;78.33
43824;BME280;29470;53.550;9.926;2022-08-24T04:42:13;101564.13;;;19.12;78.48
43824;BME280;29470;53.550;9.926;2022-08-24T04:47:16;101559.72;;;19.11;78.52
43824;BME280;29470;53.550;9.926;2022-08-24T04:52:20;101561.72;;;19.17;78.64
43824;BME280;29470;53.550;9.926;2022-08-24T04:57:24;101571.66;;;19.24;78.20
43824;BME280;29470;53.550;9.926;2022-08-24T05:02:27;101571.75;;;19.25;77.93
43824;BME280;29470;53.550;9.926;2022-08-24T05:07:34;101586.19;;;19.35;77.70
43824;BME280;29470;53.550;9.926;2022-08-24T05:12:38;101592.38;;;19.37;77.82
43824;BME280;29470;53.550;9.926;2022-08-24T05:17:43;101592.25;;;19.34;78.03
43824;BME280;29470;53.550;9.926;2022-08-24T05:22:52;101596.75;;;19.37;78.22
43824;BME280;29470;53.550;9.926;2022-08-24T05:27:59;101603.59;;;19.53;77.73
43824;BME280;29470;53.550;9.926;2022-08-24T05:33:02;101599.75;;;19.64;77.65
43824;BME280;29470;53.550;9.926;2022-08-24T05:38:05;101608.88;;;19.72;77.24
43824;BME280;29470;53.550;9.926;2022-08-24T05:43:12;101616.69;;;19.91;76.66
43824;BME280;29470;53.550;9.926;2022-08-24T05:48:16;101613.06;;;20.07;76.33
43824;BME280;29470;53.550;9.926;2022-08-24T05:53:54;101621.09;;;20.31;76.04
43824;BME280;29470;53.550;9.926;2022-08-24T05:59:03;101620.97;;;20.49;75.59
43824;BME280;29470;53.550;9.926;2022-08-24T06:04:06;101624.78;;;20.56;75.29
43824;BME280;29470;53.550;9.926;2022-08-24T06:09:10;101625.00;;;20.82;74.95
43824;BME280;29470;53.550;9.926;2022-08-24T06:14:16;101632.94;;;21.04;74.17
43824;BME280;29470;53.550;9.926;2022-08-24T06:19:29;101635.69;;;21.08;74.17
43824;BME280;29470;53.550;9.926;2022-08-24T06:24:34;101634.72;;;21.06;74.24
43824;BME280;29470;53.550;9.926;2022-08-24T06:29:58;101637.84;;;21.18;73.62
43824;BME280;29470;53.550;9.926;2022-08-24T06:35:30;101642.03;;;21.36;73.80
43824;BME280;29470;53.550;9.926;2022-08-24T06:40:33;101637.75;;;22.33;70.02
43824;BME280;29470;53.550;9.926;2022-08-24T06:45:39;101641.97;;;23.33;65.88
43824;BME280;29470;53.550;9.926;2022-08-24T06:50:46;101637.91;;;25.08;60.43
43824;BME280;29470;53.550;9.926;2022-08-24T06:55:51;101650.44;;;25.52;58.33
43824;BME280;29470;53.550;9.926;2022-08-24T07:00:57;101650.50;;;25.55;58.82
43824;BME280;29470;53.550;9.926;2022-08-24T07:06:09;101660.25;;;25.56;58.09
43824;BME280;29470;53.550;9.926;2022-08-24T07:11:17;101648.63;;;26.39;55.34
43824;BME280;29470;53.550;9.926;2022-08-24T07:16:22;101655.53;;;27.37;53.52
43824;BME280;29470;53.550;9.926;2022-08-24T07:21:30;101659.91;;;28.86;49.16
43824;BME280;29470;53.550;9.926;2022-08-24T07:26:33;101657.09;;;30.98;43.62
43824;BME280;29470;53.550;9.926;2022-08-24T07:31:38;101661.78;;;32.59;40.26
43824;BME280;29470;53.550;9.926;2022-08-24T07:36:47;101659.78;;;33.68;38.51
43824;BME280;29470;53.550;9.926;2022-08-24T07:41:51;101667.78;;;32.89;39.17
43824;BME280;29470;53.550;9.926;2022-08-24T07:47:16;101663.81;;;33.29;38.40
43824;BME280;29470;53.550;9.926;2022-08-24T07:52:46;101663.16;;;33.09;38.90
43824;BME280;29470;53.550;9.926;2022-08-24T07:57:49;101654.56;;;32.66;38.98
43824;BME280;29470;53.550;9.926;2022-08-24T08:02:53;101665.00;;;31.51;40.98
43824;BME280;29470;53.550;9.926;2022-08-24T08:07:57;101670.44;;;30.57;43.09
43824;BME280;29470;53.550;9.926;2022-08-24T08:13:01;101666.84;;;30.31;44.22
43824;BME280;29470;53.550;9.926;2022-08-24T08:18:07;101678.72;;;28.15;50.27
43824;BME280;29470;53.550;9.926;2022-08-24T08:23:12;101677.81;;;26.40;55.12
43824;BME280;29470;53.550;9.926;2022-08-24T08:28:38;101686.59;;;25.52;57.28
43824;BME280;29470;53.550;9.926;2022-08-24T08:33:45;101685.34;;;24.99;60.13
43824;BME280;29470;53.550;9.926;2022-08-24T08:38:49;101685.25;;;24.96;59.85
43824;BME280;29470;53.550;9.926;2022-08-24T08:43:56;101680.78;;;25.30;59.37
43824;BME280;29470;53.550;9.926;2022-08-24T08:49:10;101676.19;;;25.21;59.18
43824;BME280;29470;53.550;9.926;2022-08-24T08:54:37;101678.84;;;25.23;58.31
43824;BME280;29470;53.550;9.926;2022-08-24T09:00:07;101686.59;;;25.52;57.10
43824;BME280;29470;53.550;9.926;2022-08-24T09:11:15;101677.66;;;25.88;56.03
43824;BME280;29470;53.550;9.926;2022-08-24T09:16:30;101676.75;;;25.86;55.93
43824;BME280;29470;53.550;9.926;2022-08-24T09:21:48;101677.94;;;25.59;56.44
43824;BME280;29470;53.550;9.926;2022-08-24T09:27:02;101673.22;;;25.87;56.36
43824;BME280;29470;53.550;9.926;2022-08-24T09:32:23;101668.59;;;26.20;56.59
43824;BME280;29470;53.550;9.926;2022-08-24T09:37:42;101673.31;;;25.92;56.37
43824;BME280;29470;53.550;9.926;2022-08-24T09:54:28;101662.50;;;26.24;55.53
43824;BME280;29470;53.550;9.926;2022-08-24T10:00:00;101657.47;;;26.39;56.18
43824;BME280;29470;53.550;9.926;2022-08-24T10:05:23;101647.94;;;26.49;55.39
43824;BME280;29470;53.550;9.926;2022-08-24T10:10:39;101648.13;;;26.60;53.07
43824;BME280;29470;53.550;9.926;2022-08-24T10:16:01;101645.53;;;26.65;53.85
43824;BME280;29470;53.550;9.926;2022-08-24T10:21:19;101640.00;;;26.51;51.71
43824;BME280;29470;53.550;9.926;2022-08-24T10:26:35;101641.91;;;26.59;53.08
43824;BME280;29470;53.550;9.926;2022-08-24T10:31:55;101637.97;;;26.86;51.45
43824;BME280;29470;53.550;9.926;2022-08-24T10:37:32;101637.72;;;26.74;52.07
43824;BME280;29470;53.550;9.926;2022-08-24T10:43:18;101636.31;;;26.93;51.06
43824;BME280;29470;53.550;9.926;2022-08-24T10:54:09;101629.66;;;26.68;49.03
43824;BME280;29470;53.550;9.926;2022-08-24T10:59:17;101630.31;;;27.08;49.64
43824;BME280;29470;53.550;9.926;2022-08-24T11:04:27;101632.09;;;27.08;48.49
43824;BME280;29470;53.550;9.926;2022-08-24T11:09:45;101624.13;;;27.08;47.92
43824;BME280;29470;53.550;9.926;2022-08-24T11:14:50;101626.31;;;27.38;47.49
43824;BME280;29470;53.550;9.926;2022-08-24T11:19:56;101626.75;;;27.71;45.16
43824;BME280;29470;53.550;9.926;2022-08-24T11:25:06;101627.53;;;27.60;45.81
43824;BME280;29470;53.550;9.926;2022-08-24T11:30:22;101628.19;;;27.45;45.07
43824;BME280;29470;53.550;9.926;2022-08-24T11:35:34;101622.97;;;27.50;44.92
43824;BME280;29470;53.550;9.926;2022-08-24T11:40:42;101623.19;;;27.69;44.66
43824;BME280;29470;53.550;9.926;2022-08-24T11:45:54;101620.72;;;27.84;45.66
43824;BME280;29470;53.550;9.926;2022-08-24T11:51:10;101623.44;;;27.89;43.76
43824;BME280;29470;53.550;9.926;2022-08-24T11:56:22;101623.56;;;27.98;43.19
43824;BME280;29470;53.550;9.926;2022-08-24T12:01:31;101631.75;;;28.17;43.85
43824;BME280;29470;53.550;9.926;2022-08-24T12:06:55;101616.59;;;28.10;41.38
43824;BME280;29470;53.550;9.926;2022-08-24T12:12:07;101616.31;;;27.85;42.69
43824;BME280;29470;53.550;9.926;2022-08-24T12:17:15;101614.38;;;27.71;40.87
43824;BME280;29470;53.550;9.926;2022-08-24T12:22:21;101610.69;;;27.60;42.24
43824;BME280;29470;53.550;9.926;2022-08-24T12:27:29;101610.91;;;27.75;42.42
43824;BME280;29470;53.550;9.926;2022-08-24T12:32:38;101610.09;;;27.84;40.65
43824;BME280;29470;53.550;9.926;2022-08-24T12:37:44;101607.84;;;28.20;41.35
43824;BME280;29470;53.550;9.926;2022-08-24T12:42:52;101605.34;;;28.37;39.54
43824;BME280;29470;53.550;9.926;2022-08-24T12:48:00;101595.69;;;28.48;39.40
43824;BME280;29470;53.550;9.926;2022-08-24T12:53:22;101611.69;;;28.51;40.04
43824;BME280;29470;53.550;9.926;2022-08-24T12:58:51;101609.06;;;28.59;40.34
43824;BME280;29470;53.550;9.926;2022-08-24T13:04:10;101601.03;;;28.53;40.94
43824;BME280;29470;53.550;9.926;2022-08-24T13:09:26;101606.47;;;28.65;41.04
43824;BME280;29470;53.550;9.926;2022-08-24T13:14:33;101609.34;;;28.89;41.27
43824;BME280;29470;53.550;9.926;2022-08-24T13:19:39;101607.41;;;28.74;40.33
43824;BME280;29470;53.550;9.926;2022-08-24T13:24:43;101602.97;;;28.73;40.10
43824;BME280;29470;53.550;9.926;2022-08-24T13:30:05;101602.97;;;28.71;40.97
43824;BME280;29470;53.550;9.926;2022-08-24T13:35:32;101603.91;;;28.78;40.47
43824;BME280;29470;53.550;9.926;2022-08-24T13:40:44;101592.22;;;28.59;40.77
43824;BME280;29470;53.550;9.926;2022-08-24T13:45:54;101594.09;;;28.74;40.41
43824;BME280;29470;53.550;9.926;2022-08-24T13:51:19;101589.53;;;28.56;40.22
43824;BME280;29470;53.550;9.926;2022-08-24T13:56:35;101592.31;;;28.73;40.05
43824;BME280;29470;53.550;9.926;2022-08-24T14:02:01;101591.44;;;28.72;40.31
43824;BME280;29470;53.550;9.926;2022-08-24T14:07:12;101587.84;;;28.69;40.44
43824;BME280;29470;53.550;9.926;2022-08-24T14:12:34;101582.38;;;28.45;41.17
43824;BME280;29470;53.550;9.926;2022-08-24T14:17:45;101580.69;;;28.61;40.57
43824;BME280;29470;53.550;9.926;2022-08-24T14:23:01;101583.38;;;28.61;40.04
43824;BME280;29470;53.550;9.926;2022-08-24T14:28:33;101574.53;;;28.65;40.32
43824;BME280;29470;53.550;9.926;2022-08-24T14:33:45;101576.38;;;28.76;40.58
43824;BME280;29470;53.550;9.926;2022-08-24T14:39:00;101570.78;;;28.42;40.42
43824;BME280;29470;53.550;9.926;2022-08-24T14:44:18;101569.94;;;28.46;40.37
43824;BME280;29470;53.550;9.926;2022-08-24T14:49:34;101571.81;;;28.59;39.55
43824;BME280;29470;53.550;9.926;2022-08-24T14:54:43;101560.25;;;28.52;39.40
43824;BME280;29470;53.550;9.926;2022-08-24T15:00:03;101573.56;;;28.56;38.70
43824;BME280;29470;53.550;9.926;2022-08-24T15:05:15;101561.16;;;28.56;38.28
43824;BME280;29470;53.550;9.926;2022-08-24T15:10:24;101560.28;;;28.57;37.96
43824;BME280;29470;53.550;9.926;2022-08-24T15:15:31;101562.84;;;28.43;38.05
43824;BME280;29470;53.550;9.926;2022-08-24T15:20:48;101558.41;;;28.47;37.75
43824;BME280;29470;53.550;9.926;2022-08-24T15:25:58;101562.81;;;28.40;37.79
43824;BME280;29470;53.550;9.926;2022-08-24T15:31:08;101555.66;;;28.34;38.20
43824;BME280;29470;53.550;9.926;2022-08-24T15:36:15;101553.91;;;28.36;37.44
43824;BME280;29470;53.550;9.926;2022-08-24T15:41:20;101553.94;;;28.41;37.79
43824;BME280;29470;53.550;9.926;2022-08-24T15:46:30;101548.56;;;28.33;37.72
43824;BME280;29470;53.550;9.926;2022-08-24T15:51:44;101551.22;;;28.32;37.08
43824;BME280;29470;53.550;9.926;2022-08-24T15:56:50;101545.84;;;28.27;36.45
43824;BME280;29470;53.550;9.926;2022-08-24T16:07:34;101550.22;;;28.19;37.41
43824;BME280;29470;53.550;9.926;2022-08-24T16:13:05;101546.66;;;28.18;36.54
43824;BME280;29470;53.550;9.926;2022-08-24T16:18:09;101547.53;;;28.13;36.79
43824;BME280;29470;53.550;9.926;2022-08-24T16:23:22;101542.94;;;28.02;37.47
43824;BME280;29470;53.550;9.926;2022-08-24T16:28:34;101548.25;;;28.01;36.43
43824;BME280;29470;53.550;9.926;2022-08-24T16:33:41;101553.50;;;27.94;36.04
43824;BME280;29470;53.550;9.926;2022-08-24T16:38:48;101554.38;;;27.92;35.24
43824;BME280;29470;53.550;9.926;2022-08-24T16:43:51;101570.22;;;27.84;35.71
43824;BME280;29470;53.550;9.926;2022-08-24T16:48:54;101561.38;;;27.84;35.85
43824;BME280;29470;53.550;9.926;2022-08-24T16:53:59;101560.31;;;27.71;35.94
43824;BME280;29470;53.550;9.926;2022-08-24T16:59:03;101561.13;;;27.63;37.68
43824;BME280;29470;53.550;9.926;2022-08-24T17:04:07;101564.72;;;27.69;37.53
43824;BME280;29470;53.550;9.926;2022-08-24T17:09:11;101565.50;;;27.57;37.29
43824;BME280;29470;53.550;9.926;2022-08-24T17:14:15;101564.66;;;27.61;38.08
43824;BME280;29470;53.550;9.926;2022-08-24T17:19:18;101564.50;;;27.48;39.34
43824;BME280;29470;53.550;9.926;2022-08-24T17:24:23;101571.47;;;27.40;40.20
43824;BME280;29470;53.550;9.926;2022-08-24T17:29:27;101572.34;;;27.39;40.32
43824;BME280;29470;53.550;9.926;2022-08-24T17:34:30;101577.44;;;27.24;40.74
43824;BME280;29470;53.550;9.926;2022-08-24T17:39:35;101570.34;;;27.23;40.50
43824;BME280;29470;53.550;9.926;2022-08-24T17:44:38;101585.38;;;27.19;40.89
43824;BME280;29470;53.550;9.926;2022-08-24T17:49:41;101591.31;;;27.04;41.34
43824;BME280;29470;53.550;9.926;2022-08-24T17:54:45;101585.94;;;26.98;41.09
43824;BME280;29470;53.550;9.926;2022-08-24T17:59:48;101592.75;;;26.82;41.58
43824;BME280;29470;53.550;9.926;2022-08-24T18:04:51;101601.53;;;26.79;41.29
43824;BME280;29470;53.550;9.926;2022-08-24T18:09:57;101599.59;;;26.69;41.57
43824;BME280;29470;53.550;9.926;2022-08-24T18:15:01;101604.75;;;26.59;41.80
43824;BME280;29470;53.550;9.926;2022-08-24T18:20:07;101603.88;;;26.59;42.47
43824;BME280;29470;53.550;9.926;2022-08-24T18:25:13;101614.28;;;26.45;43.14
43824;BME280;29470;53.550;9.926;2022-08-24T18:30:19;101632.56;;;26.31;43.86
43824;BME280;29470;53.550;9.926;2022-08-24T18:35:26;101625.44;;;26.27;44.09
43824;BME280;29470;53.550;9.926;2022-08-24T18:40:31;101638.56;;;26.19;44.69
43824;BME280;29470;53.550;9.926;2022-08-24T18:45:34;101633.03;;;26.10;44.78
43824;BME280;29470;53.550;9.926;2022-08-24T18:50:37;101648.78;;;26.00;45.44
43824;BME280;29470;53.550;9.926;2022-08-24T18:55:44;101660.97;;;25.94;45.75
43824;BME280;29470;53.550;9.926;2022-08-24T19:00:48;101656.47;;;25.89;46.15
43824;BME280;29470;53.550;9.926;2022-08-24T19:05:52;101656.28;;;25.80;46.71
43824;BME280;29470;53.550;9.926;2022-08-24T19:10:57;101655.00;;;25.59;47.57
43824;BME280;29470;53.550;9.926;2022-08-24T19:16:00;101655.06;;;25.24;51.75
43824;BME280;29470;53.550;9.926;2022-08-24T19:21:04;101658.28;;;25.11;54.48
43824;BME280;29470;53.550;9.926;2022-08-24T19:26:08;101656.28;;;25.00;55.69
43824;BME280;29470;53.550;9.926;2022-08-24T19:31:12;101655.91;;;24.85;57.83
43824;BME280;29470;53.550;9.926;2022-08-24T19:36:15;101664.19;;;24.65;59.52
43824;BME280;29470;53.550;9.926;2022-08-24T19:41:20;101661.28;;;24.54;61.39
43824;BME280;29470;53.550;9.926;2022-08-24T19:46:37;101668.06;;;24.45;62.04
43824;BME280;29470;53.550;9.926;2022-08-24T19:51:40;101668.66;;;24.34;63.16
43824;BME280;29470;53.550;9.926;2022-08-24T19:56:45;101671.03;;;24.23;64.17
43824;BME280;29470;53.550;9.926;2022-08-24T20:01:48;101671.56;;;24.11;65.16
43824;BME280;29470;53.550;9.926;2022-08-24T20:06:51;101674.66;;;23.98;65.35
43824;BME280;29470;53.550;9.926;2022-08-24T20:11:56;101677.19;;;23.93;66.17
43824;BME280;29470;53.550;9.926;2022-08-24T20:16:59;101681.25;;;23.82;66.63
43824;BME280;29470;53.550;9.926;2022-08-24T20:22:02;101681.09;;;23.76;66.95
43824;BME280;29470;53.550;9.926;2022-08-24T20:27:19;101677.31;;;23.67;67.35
43824;BME280;29470;53.550;9.926;2022-08-24T20:32:22;101690.13;;;23.53;68.00
43824;BME280;29470;53.550;9.926;2022-08-24T20:37:27;101688.44;;;23.57;67.84
43824;BME280;29470;53.550;9.926;2022-08-24T20:42:31;101699.66;;;23.50;68.35
43824;BME280;29470;53.550;9.926;2022-08-24T20:47:45;101695.00;;;23.41;68.67
43824;BME280;29470;53.550;9.926;2022-08-24T20:52:50;101698.50;;;23.40;68.71
43824;BME280;29470;53.550;9.926;2022-08-24T20:57:56;101693.81;;;23.31;69.15
43824;BME280;29470;53.550;9.926;2022-08-24T21:03:01;101690.94;;;23.23;69.20
43824;BME280;29470;53.550;9.926;2022-08-24T21:08:04;101699.59;;;23.21;69.24
43824;BME280;29470;53.550;9.926;2022-08-24T21:13:09;101689.78;;;23.17;69.19
43824;BME280;29470;53.550;9.926;2022-08-24T21:18:12;101690.50;;;23.11;69.66
43824;BME280;29470;53.550;9.926;2022-08-24T21:23:15;101689.38;;;23.04;69.78
43824;BME280;29470;53.550;9.926;2022-08-24T21:28:19;101687.38;;;22.97;69.50
43824;BME280;29470;53.550;9.926;2022-08-24T21:33:23;101691.03;;;23.01;69.21
43824;BME280;29470;53.550;9.926;2022-08-24T21:38:43;101693.56;;;22.98;68.96
43824;BME280;29470;53.550;9.926;2022-08-24T21:43:48;101694.53;;;23.00;68.45
43824;BME280;29470;53.550;9.926;2022-08-24T21:48:51;101703.31;;;23.00;68.90
43824;BME280;29470;53.550;9.926;2022-08-24T21:53:54;101701.38;;;22.94;69.18
43824;BME280;29470;53.550;9.926;2022-08-24T21:59:02;101708.22;;;22.88;69.57
43824;BME280;29470;53.550;9.926;2022-08-24T22:04:05;101710.47;;;22.77;70.49
43824;BME280;29470;53.550;9.926;2022-08-24T22:09:09;101706.03;;;22.76;70.90
43824;BME280;29470;53.550;9.926;2022-08-24T22:14:13;101701.25;;;22.64;71.79
43824;BME280;29470;53.550;9.926;2022-08-24T22:19:17;101699.44;;;22.63;72.34
43824;BME280;29470;53.550;9.926;2022-08-24T22:24:20;101698.50;;;22.61;72.61
43824;BME280;29470;53.550;9.926;2022-08-24T22:29:25;101693.78;;;22.52;73.46
43824;BME280;29470;53.550;9.926;2022-08-24T22:34:27;101695.44;;;22.48;73.73
43824;BME280;29470;53.550;9.926;2022-08-24T22:39:31;101692.53;;;22.42;73.61
43824;BME280;29470;53.550;9.926;2022-08-24T22:44:35;101681.72;;;22.34;74.35
43824;BME280;29470;53.550;9.926;2022-08-24T22:49:40;101682.72;;;22.38;74.66
43824;BME280;29470;53.550;9.926;2022-08-24T22:54:44;101683.38;;;22.32;74.92
43824;BME280;29470;53.550;9.926;2022-08-24T22:59:49;101689.91;;;22.18;76.16
43824;BME280;29470;53.550;9.926;2022-08-24T23:04:52;101693.44;;;22.18;76.47
43824;BME280;29470;53.550;9.926;2022-08-24T23:09:55;101693.00;;;22.06;77.68
43824;BME280;29470;53.550;9.926;2022-08-24T23:15:00;101690.19;;;22.01;78.57
43824;BME280;29470;53.550;9.926;2022-08-24T23:20:03;101699.81;;;22.01;78.20
43824;BME280;29470;53.550;9.926;2022-08-24T23:25:12;101703.25;;;21.98;78.90
43824;BME280;29470;53.550;9.926;2022-08-24T23:30:16;101705.78;;;21.95;79.50
43824;BME280;29470;53.550;9.926;2022-08-24T23:35:19;101693.69;;;21.77;80.25
43824;BME280;29470;53.550;9.926;2022-08-24T23:40:22;101699.72;;;21.75;80.95
43824;BME280;29470;53.550;9.926;2022-08-24T23:45:27;101693.34;;;21.68;81.62
43824;BME280;29470;53.550;9.926;2022-08-24T23:50:31;101692.50;;;21.69;81.77
43824;BME280;29470;53.550;9.926;2022-08-24T23:55:34;101699.25;;;21.62;82.66
